createdAt,value
2022-12-31T00:01:09.764Z,43.83
2022-12-31T00:03:39.691Z,46.03
2022-12-31T00:06:21.545Z,43.78
2022-12-31T00:08:48.595Z,45.08
2022-12-31T00:11:16.286Z,43.72
2022-12-31T00:13:42.819Z,43.10
2022-12-31T00:16:17.594Z,43.80
2022-12-31T00:18:50.065Z,43.65
2022-12-31T00:21:19.305Z,40.67
2022-12-31T00:23:48.015Z,38.97
2022-12-31T00:26:16.146Z,38.90
2022-12-31T00:28:43.918Z,38.25
2022-12-31T00:31:17.489Z,38.83
2022-12-31T00:33:44.322Z,37.10
2022-12-31T00:36:12.354Z,37.42
2022-12-31T00:38:39.262Z,38.10
2022-12-31T00:41:06.511Z,40.17
2022-12-31T00:43:33.249Z,35.95
2022-12-31T00:46:00.182Z,34.15
2022-12-31T00:51:00.436Z,37.80
2022-12-31T00:53:27.051Z,32.92
2022-12-31T00:55:59.170Z,30.33
2022-12-31T00:58:28.260Z,33.83
2022-12-31T01:00:54.721Z,37.75
2022-12-31T01:03:21.263Z,38.67
2022-12-31T01:05:48.963Z,38.58
2022-12-31T01:08:15.434Z,39.25
2022-12-31T01:10:49.513Z,39.15
2022-12-31T01:13:15.951Z,39.17
2022-12-31T01:15:42.583Z,37.38
2022-12-31T01:18:15.573Z,42.50
2022-12-31T01:20:43.537Z,42.20
2022-12-31T01:23:11.158Z,38.72
2022-12-31T01:25:38.610Z,42.90
2022-12-31T01:28:05.942Z,46.13
2022-12-31T01:30:32.455Z,40.90
2022-12-31T01:32:59.499Z,47.80
2022-12-31T01:35:26.056Z,42.85
2022-12-31T01:37:52.513Z,44.05
2022-12-31T01:40:20.960Z,40.33
2022-12-31T01:42:54.010Z,38.85
2022-12-31T01:45:20.580Z,40.60
2022-12-31T01:47:48.512Z,44.80
2022-12-31T01:50:21.048Z,43.70
2022-12-31T01:52:49.956Z,48.22
2022-12-31T01:55:18.686Z,55.10
2022-12-31T01:57:45.887Z,48.75
2022-12-31T02:00:13.973Z,50.00
2022-12-31T02:02:40.566Z,47.53
2022-12-31T02:05:12.556Z,43.72
2022-12-31T02:07:39.283Z,39.25
2022-12-31T02:10:11.782Z,49.95
2022-12-31T02:12:38.298Z,45.05
2022-12-31T02:15:05.194Z,47.85
2022-12-31T02:18:03.211Z,46.15
2022-12-31T02:20:51.774Z,56.20
2022-12-31T02:23:27.263Z,53.85
2022-12-31T02:26:12.479Z,54.47
2022-12-31T02:29:01.184Z,53.15
2022-12-31T02:34:03.325Z,46.63
2022-12-31T02:36:33.452Z,52.42
2022-12-31T02:39:00.910Z,53.80
2022-12-31T02:41:27.478Z,62.28
2022-12-31T02:43:53.988Z,53.55
2022-12-31T02:46:28.163Z,55.30
2022-12-31T02:49:33.133Z,60.95
2022-12-31T02:52:14.716Z,55.38
2022-12-31T02:55:05.851Z,50.90
2022-12-31T02:57:32.304Z,48.78
2022-12-31T03:00:08.051Z,56.72
2022-12-31T03:02:36.036Z,49.15
2022-12-31T03:05:03.405Z,48.50
2022-12-31T03:07:31.001Z,54.70
2022-12-31T03:09:59.078Z,53.30
2022-12-31T03:12:31.291Z,53.60
2022-12-31T03:14:57.896Z,53.50
2022-12-31T03:17:24.945Z,55.05
2022-12-31T03:22:23.261Z,53.58
2022-12-31T03:24:54.558Z,50.95
2022-12-31T03:27:21.112Z,51.20
2022-12-31T03:29:47.641Z,48.95
2022-12-31T03:32:15.034Z,49.83
2022-12-31T03:34:41.627Z,54.42
2022-12-31T03:37:09.053Z,52.45
2022-12-31T03:39:35.548Z,55.55
2022-12-31T03:42:04.015Z,49.28
2022-12-31T03:44:30.632Z,51.97
2022-12-31T03:46:59.527Z,48.50
2022-12-31T03:49:26.072Z,46.47
2022-12-31T03:51:52.552Z,54.78
2022-12-31T03:54:19.124Z,47.97
2022-12-31T03:56:47.162Z,51.60
2022-12-31T03:59:16.020Z,49.42
2022-12-31T04:01:42.609Z,41.30
2022-12-31T04:04:11.074Z,50.40
2022-12-31T04:06:37.548Z,46.20
2022-12-31T04:09:04.091Z,42.50
2022-12-31T04:11:30.542Z,44.83
2022-12-31T04:13:57.149Z,44.50
2022-12-31T04:16:23.719Z,50.75
2022-12-31T04:18:50.223Z,45.55
2022-12-31T04:21:16.764Z,44.50
2022-12-31T04:23:43.367Z,41.38
2022-12-31T04:26:13.038Z,44.38
2022-12-31T04:28:39.500Z,45.17
2022-12-31T04:31:06.042Z,47.15
2022-12-31T04:33:34.895Z,45.67
2022-12-31T04:36:04.096Z,41.67
2022-12-31T04:38:30.579Z,38.83
2022-12-31T04:40:57.084Z,39.78
2022-12-31T04:43:23.583Z,40.05
2022-12-31T04:45:55.103Z,40.15
2022-12-31T04:48:21.667Z,38.85
2022-12-31T04:50:48.625Z,42.20
2022-12-31T04:53:16.289Z,38.88
2022-12-31T04:55:42.903Z,37.78
2022-12-31T04:58:09.694Z,37.67
2022-12-31T05:00:36.262Z,38.38
2022-12-31T05:03:06.164Z,37.78
2022-12-31T05:05:34.093Z,36.55
2022-12-31T05:08:02.247Z,35.33
2022-12-31T05:10:31.254Z,39.92
2022-12-31T05:12:58.363Z,35.88
2022-12-31T05:15:24.841Z,36.22
2022-12-31T05:17:52.029Z,37.03
2022-12-31T05:20:18.560Z,34.83
2022-12-31T05:22:47.151Z,30.63
2022-12-31T05:25:13.616Z,32.80
2022-12-31T05:27:41.148Z,32.17
2022-12-31T05:30:08.061Z,28.00
2022-12-31T05:32:36.977Z,25.58
2022-12-31T05:35:03.792Z,29.67
2022-12-31T05:37:31.076Z,30.48
2022-12-31T05:39:59.125Z,29.75
2022-12-31T05:42:25.834Z,29.10
2022-12-31T05:44:53.135Z,36.38
2022-12-31T05:47:22.489Z,28.00
2022-12-31T05:49:52.770Z,29.98
2022-12-31T05:52:19.416Z,30.88
2022-12-31T05:54:45.933Z,27.42
2022-12-31T05:57:12.400Z,27.00
2022-12-31T05:59:42.575Z,24.15
2022-12-31T06:02:11.916Z,23.42
2022-12-31T06:04:38.628Z,23.45
2022-12-31T06:07:05.056Z,25.90
2022-12-31T06:09:31.563Z,24.88
2022-12-31T06:12:02.434Z,26.60
2022-12-31T06:14:28.987Z,26.27
2022-12-31T06:16:59.187Z,24.25
2022-12-31T06:19:25.819Z,28.02
2022-12-31T06:21:52.373Z,27.50
2022-12-31T06:24:18.982Z,28.83
2022-12-31T06:26:45.511Z,27.63
2022-12-31T06:29:13.196Z,30.27
2022-12-31T06:31:40.223Z,28.05
2022-12-31T06:34:06.682Z,30.48
2022-12-31T06:36:33.178Z,28.40
2022-12-31T06:38:59.731Z,27.10
2022-12-31T06:41:26.357Z,26.75
2022-12-31T06:43:52.908Z,26.75
2022-12-31T06:46:19.425Z,26.05
2022-12-31T06:48:45.981Z,26.55
2022-12-31T06:51:17.016Z,28.52
2022-12-31T06:53:45.074Z,28.95
2022-12-31T06:56:16.294Z,26.92
2022-12-31T06:58:47.509Z,24.63
2022-12-31T07:01:35.241Z,27.83
2022-12-31T07:04:18.987Z,25.05
2022-12-31T07:06:50.925Z,25.08
2022-12-31T07:09:33.253Z,28.17
2022-12-31T07:12:06.556Z,27.80
2022-12-31T07:14:36.082Z,27.45
2022-12-31T07:17:08.424Z,28.08
2022-12-31T07:19:46.177Z,24.23
2022-12-31T07:22:15.713Z,25.77
2022-12-31T07:24:42.904Z,27.73
2022-12-31T07:27:31.800Z,26.45
2022-12-31T07:30:04.135Z,25.45
2022-12-31T07:32:53.746Z,27.17
2022-12-31T07:35:34.540Z,23.52
2022-12-31T07:38:14.779Z,25.63
2022-12-31T07:41:05.558Z,27.58
2022-12-31T07:43:35.647Z,27.35
2022-12-31T07:46:22.309Z,25.38
2022-12-31T07:48:48.962Z,23.92
2022-12-31T07:51:15.683Z,28.13
2022-12-31T07:53:42.217Z,25.80
2022-12-31T07:56:10.042Z,28.02
2022-12-31T07:58:40.250Z,28.02
2022-12-31T08:01:12.644Z,24.67
2022-12-31T08:04:02.883Z,28.83
2022-12-31T08:06:29.359Z,28.30
2022-12-31T08:08:59.233Z,27.85
2022-12-31T08:11:46.151Z,28.83
2022-12-31T08:14:13.254Z,28.58
2022-12-31T08:16:43.721Z,25.75
2022-12-31T08:19:17.045Z,25.92
2022-12-31T08:21:50.941Z,25.95
2022-12-31T08:24:23.798Z,28.50
2022-12-31T08:27:10.582Z,28.55
2022-12-31T08:29:43.068Z,27.10
2022-12-31T08:32:17.000Z,26.33
2022-12-31T08:34:52.753Z,27.90
2022-12-31T08:37:32.858Z,24.05
2022-12-31T08:40:02.292Z,25.33
2022-12-31T08:42:37.058Z,31.15
2022-12-31T08:45:22.209Z,29.65
2022-12-31T08:47:55.025Z,26.40
2022-12-31T08:50:24.682Z,25.70
2022-12-31T08:52:51.292Z,28.77
2022-12-31T08:55:18.189Z,26.80
2022-12-31T08:57:48.331Z,26.92
2022-12-31T09:00:17.094Z,25.85
2022-12-31T09:02:53.320Z,24.52
2022-12-31T09:05:49.225Z,29.52
2022-12-31T09:08:36.138Z,34.20
2022-12-31T09:11:23.714Z,30.05
2022-12-31T09:13:59.389Z,32.05
2022-12-31T09:16:44.581Z,33.65
2022-12-31T09:19:11.026Z,35.75
2022-12-31T09:21:37.775Z,35.63
2022-12-31T09:24:11.102Z,34.78
2022-12-31T09:26:48.413Z,37.53
2022-12-31T09:29:14.858Z,36.15
2022-12-31T09:31:55.843Z,39.65
2022-12-31T09:34:30.760Z,43.10
2022-12-31T09:36:59.392Z,38.97
2022-12-31T09:39:31.818Z,41.88
2022-12-31T09:42:01.019Z,41.22
2022-12-31T09:44:33.464Z,38.30
2022-12-31T09:47:18.582Z,37.45
2022-12-31T09:49:45.046Z,36.92
2022-12-31T09:52:22.386Z,40.70
2022-12-31T09:55:07.501Z,38.63
2022-12-31T09:57:36.755Z,40.00
2022-12-31T10:00:13.129Z,39.03
2022-12-31T10:02:39.887Z,38.00
2022-12-31T10:05:25.037Z,38.17
2022-12-31T10:08:14.637Z,40.13
2022-12-31T10:10:41.160Z,33.38
2022-12-31T10:13:29.900Z,34.03
2022-12-31T10:16:15.066Z,36.30
2022-12-31T10:18:47.246Z,36.78
2022-12-31T10:21:29.549Z,35.20
2022-12-31T10:23:59.034Z,35.20
2022-12-31T10:26:29.510Z,37.83
2022-12-31T10:29:19.295Z,35.00
2022-12-31T10:32:15.088Z,35.50
2022-12-31T10:34:47.692Z,34.45
2022-12-31T10:37:24.589Z,37.10
2022-12-31T10:40:06.287Z,36.40
2022-12-31T10:42:44.820Z,37.85
2022-12-31T10:45:30.115Z,36.60
2022-12-31T10:47:59.349Z,32.80
2022-12-31T10:50:32.354Z,34.42
2022-12-31T10:53:17.702Z,34.10
2022-12-31T10:55:46.621Z,33.33
2022-12-31T10:58:28.379Z,33.08
2022-12-31T11:01:05.627Z,34.70
2022-12-31T11:03:35.143Z,36.13
2022-12-31T11:06:14.136Z,32.97
2022-12-31T11:08:52.585Z,32.75
2022-12-31T11:11:19.035Z,33.42
2022-12-31T11:13:58.390Z,31.92
2022-12-31T11:16:34.035Z,29.13
2022-12-31T11:19:06.455Z,30.30
2022-12-31T11:21:39.473Z,32.83
2022-12-31T11:24:18.987Z,31.05
2022-12-31T11:26:46.385Z,29.48
2022-12-31T11:29:31.238Z,31.05
2022-12-31T11:32:22.419Z,31.90
2022-12-31T11:34:48.909Z,31.55
2022-12-31T11:37:31.308Z,30.80
2022-12-31T11:40:06.334Z,30.88
2022-12-31T11:42:38.792Z,31.40
2022-12-31T11:45:11.135Z,28.52
2022-12-31T11:48:03.953Z,28.95
2022-12-31T11:50:30.515Z,28.58
2022-12-31T11:53:15.703Z,27.88
2022-12-31T11:56:09.586Z,29.17
2022-12-31T11:58:36.034Z,28.17
2022-12-31T12:01:08.482Z,29.17
2022-12-31T12:03:38.802Z,25.77
2022-12-31T12:06:05.372Z,27.45
2022-12-31T12:08:32.787Z,24.13
2022-12-31T12:11:07.480Z,26.60
2022-12-31T12:13:34.033Z,25.70
2022-12-31T12:16:04.766Z,24.33
2022-12-31T12:18:34.217Z,25.58
2022-12-31T12:21:10.250Z,25.45
2022-12-31T12:23:37.146Z,25.92
2022-12-31T12:26:03.650Z,24.30
2022-12-31T12:28:31.661Z,25.17
2022-12-31T12:31:02.814Z,24.15
2022-12-31T12:33:29.977Z,25.13
2022-12-31T12:36:12.960Z,28.63
2022-12-31T12:38:39.469Z,24.45
2022-12-31T12:41:07.513Z,26.23
2022-12-31T12:43:35.214Z,26.67
2022-12-31T12:46:22.004Z,25.25
2022-12-31T12:48:49.636Z,22.95
2022-12-31T12:51:41.463Z,25.67
2022-12-31T12:54:26.490Z,26.42
2022-12-31T12:56:58.929Z,27.42
2022-12-31T12:59:34.482Z,28.20
2022-12-31T13:02:20.642Z,28.13
2022-12-31T13:04:47.126Z,29.38
2022-12-31T13:07:17.516Z,25.35
2022-12-31T13:09:57.204Z,26.73
2022-12-31T13:13:13.693Z,28.77
2022-12-31T13:15:34.466Z,29.60
2022-12-31T13:18:19.769Z,26.83
2022-12-31T13:20:52.843Z,28.48
2022-12-31T13:23:39.796Z,28.20
2022-12-31T13:26:06.535Z,30.13
2022-12-31T13:28:33.766Z,30.92
2022-12-31T13:31:06.495Z,28.10
2022-12-31T13:33:36.048Z,31.83
2022-12-31T13:36:05.557Z,33.35
2022-12-31T13:38:34.886Z,32.33
2022-12-31T13:41:04.164Z,28.42
2022-12-31T13:43:51.084Z,28.92
2022-12-31T13:46:36.750Z,32.72
2022-12-31T13:49:05.373Z,35.35
2022-12-31T13:51:31.832Z,30.45
2022-12-31T13:54:07.985Z,31.38
2022-12-31T13:56:37.342Z,29.83
2022-12-31T13:59:13.493Z,29.00
2022-12-31T14:01:43.466Z,29.05
2022-12-31T14:04:15.605Z,28.02
2022-12-31T14:06:42.947Z,30.50
2022-12-31T14:09:14.895Z,29.73
2022-12-31T14:12:03.842Z,32.00
2022-12-31T14:14:37.581Z,28.85
2022-12-31T14:17:22.820Z,28.60
2022-12-31T14:19:58.174Z,33.00
2022-12-31T14:22:53.760Z,33.08
2022-12-31T14:25:34.275Z,34.00
2022-12-31T14:28:01.918Z,34.78
2022-12-31T14:30:32.587Z,31.27
2022-12-31T14:33:22.733Z,25.58
2022-12-31T14:35:52.818Z,28.45
2022-12-31T14:38:19.331Z,32.85
2022-12-31T14:41:10.042Z,33.30
2022-12-31T14:43:44.296Z,31.25
2022-12-31T14:46:13.538Z,35.05
2022-12-31T14:49:02.060Z,36.05
2022-12-31T14:51:29.411Z,36.28
2022-12-31T14:53:56.613Z,37.03
2022-12-31T14:56:29.079Z,29.45
2022-12-31T14:59:02.072Z,39.75
2022-12-31T15:01:29.061Z,43.20
2022-12-31T15:03:56.634Z,36.88
2022-12-31T15:06:23.123Z,43.13
2022-12-31T15:08:49.604Z,42.10
2022-12-31T15:11:34.651Z,40.83
2022-12-31T15:14:19.600Z,37.50
2022-12-31T15:16:57.359Z,37.92
2022-12-31T15:19:39.150Z,42.67
2022-12-31T15:22:20.925Z,41.63
2022-12-31T15:24:47.706Z,40.22
2022-12-31T15:27:32.970Z,39.50
2022-12-31T15:29:59.999Z,41.78
2022-12-31T15:32:35.635Z,39.25
2022-12-31T15:35:03.319Z,37.08
2022-12-31T15:37:37.599Z,42.92
2022-12-31T15:40:24.353Z,44.00
2022-12-31T15:42:53.625Z,42.25
2022-12-31T15:45:22.594Z,43.88
2022-12-31T15:47:52.472Z,39.05
2022-12-31T15:50:20.240Z,40.33
2022-12-31T15:52:57.652Z,44.60
2022-12-31T15:55:30.251Z,43.50
2022-12-31T15:57:59.625Z,46.10
2022-12-31T16:00:28.157Z,48.90
2022-12-31T16:02:54.822Z,44.80
2022-12-31T16:05:23.181Z,55.10
2022-12-31T16:07:52.637Z,47.35
2022-12-31T16:10:22.686Z,43.83
2022-12-31T16:12:49.602Z,48.58
2022-12-31T16:15:20.889Z,40.08
2022-12-31T16:17:57.506Z,48.08
2022-12-31T16:20:25.204Z,53.60
2022-12-31T16:22:53.739Z,55.13
2022-12-31T16:25:36.829Z,54.75
2022-12-31T16:28:03.793Z,47.92
2022-12-31T16:30:32.871Z,52.97
2022-12-31T16:33:00.727Z,48.38
2022-12-31T16:35:29.698Z,47.85
2022-12-31T16:38:13.078Z,49.40
2022-12-31T16:40:40.485Z,47.42
2022-12-31T16:43:21.868Z,51.53
2022-12-31T16:45:48.672Z,49.45
2022-12-31T16:48:17.184Z,54.15
2022-12-31T16:50:48.969Z,55.00
2022-12-31T16:53:19.537Z,50.10
2022-12-31T16:55:56.026Z,54.63
2022-12-31T16:58:29.695Z,49.53
2022-12-31T17:01:00.145Z,53.75
2022-12-31T17:03:29.670Z,52.17
2022-12-31T17:05:59.214Z,48.28
2022-12-31T17:08:27.798Z,49.30
2022-12-31T17:10:54.947Z,48.75
2022-12-31T17:13:27.692Z,51.38
2022-12-31T17:15:55.949Z,51.77
2022-12-31T17:18:24.107Z,49.72
2022-12-31T17:20:54.860Z,58.38
2022-12-31T17:23:28.980Z,49.92
2022-12-31T17:26:07.539Z,56.90
2022-12-31T17:28:47.531Z,54.45
2022-12-31T17:31:29.437Z,55.25
2022-12-31T17:34:05.455Z,58.92
2022-12-31T17:36:31.922Z,61.85
2022-12-31T17:39:18.598Z,60.42
2022-12-31T17:41:49.409Z,59.03
2022-12-31T17:44:23.768Z,60.08
2022-12-31T17:46:50.432Z,62.90
2022-12-31T17:49:17.429Z,54.50
2022-12-31T17:51:47.515Z,62.53
2022-12-31T17:54:18.021Z,58.53
2022-12-31T17:56:44.768Z,59.03
2022-12-31T17:59:16.746Z,56.95
2022-12-31T18:01:43.431Z,65.88
2022-12-31T18:04:12.396Z,65.80
2022-12-31T18:06:38.915Z,61.47
2022-12-31T18:09:05.420Z,56.60
2022-12-31T18:11:35.553Z,53.83
2022-12-31T18:14:02.051Z,64.55
2022-12-31T18:16:28.786Z,59.25
2022-12-31T18:18:59.555Z,57.60
2022-12-31T18:21:28.235Z,54.60
2022-12-31T18:26:23.384Z,55.25
2022-12-31T18:28:50.460Z,47.38
2022-12-31T18:31:19.181Z,55.25
2022-12-31T18:33:45.930Z,52.53
2022-12-31T18:36:13.524Z,47.13
2022-12-31T18:38:40.744Z,55.63
2022-12-31T18:41:08.495Z,44.85
2022-12-31T18:43:34.926Z,43.30
2022-12-31T18:46:01.716Z,44.65
2022-12-31T18:48:28.195Z,48.25
2022-12-31T18:50:59.824Z,40.85
2022-12-31T18:53:26.425Z,43.15
2022-12-31T18:55:54.079Z,47.00
2022-12-31T18:58:20.631Z,46.03
2022-12-31T19:00:51.798Z,43.33
2022-12-31T19:03:23.372Z,55.20
2022-12-31T19:05:50.872Z,48.53
2022-12-31T19:08:18.222Z,47.47
2022-12-31T19:10:46.809Z,46.70
2022-12-31T19:13:14.055Z,51.75
2022-12-31T19:15:51.002Z,58.55
2022-12-31T19:18:17.896Z,57.90
2022-12-31T19:20:44.602Z,53.28
2022-12-31T19:23:15.027Z,50.05
2022-12-31T19:25:41.535Z,58.95
2022-12-31T19:28:21.315Z,53.58
2022-12-31T19:30:47.916Z,44.47
2022-12-31T19:33:14.879Z,49.95
2022-12-31T19:35:41.572Z,46.25
2022-12-31T19:38:21.685Z,46.22
2022-12-31T19:40:48.559Z,54.90
2022-12-31T19:43:19.297Z,55.33
2022-12-31T19:45:46.063Z,51.63
2022-12-31T19:48:13.791Z,58.95
2022-12-31T19:50:45.052Z,67.32
2022-12-31T19:53:12.712Z,47.75
2022-12-31T19:55:43.142Z,51.10
2022-12-31T19:58:17.297Z,60.22
2022-12-31T20:00:51.595Z,57.70
2022-12-31T20:03:21.890Z,65.32
2022-12-31T20:05:50.777Z,67.75
2022-12-31T20:08:17.376Z,61.53
2022-12-31T20:10:45.243Z,64.35
2022-12-31T20:13:11.812Z,58.97
2022-12-31T20:15:39.114Z,65.35
2022-12-31T20:18:05.675Z,60.42
2022-12-31T20:20:32.154Z,59.08
2022-12-31T20:22:58.680Z,60.47
2022-12-31T20:25:25.698Z,61.58
2022-12-31T20:27:53.225Z,58.75
2022-12-31T20:30:19.804Z,58.50
2022-12-31T20:32:46.431Z,55.55
2022-12-31T20:35:12.911Z,59.95
2022-12-31T20:37:39.499Z,56.97
2022-12-31T20:40:06.350Z,58.92
2022-12-31T20:42:32.907Z,55.88
2022-12-31T20:44:59.384Z,54.45
2022-12-31T20:47:25.901Z,53.83
2022-12-31T20:50:12.420Z,57.22
2022-12-31T20:52:39.514Z,50.95
2022-12-31T20:55:08.743Z,56.45
2022-12-31T20:57:35.580Z,55.60
2022-12-31T21:00:02.714Z,57.20
2022-12-31T21:02:40.965Z,63.70
2022-12-31T21:05:09.318Z,65.72
2022-12-31T21:07:35.922Z,60.75
2022-12-31T21:10:02.440Z,62.35
2022-12-31T21:12:28.862Z,65.43
2022-12-31T21:14:55.379Z,60.47
2022-12-31T21:17:21.870Z,65.45
2022-12-31T21:19:48.460Z,60.22
2022-12-31T21:22:15.056Z,58.58
2022-12-31T21:24:41.521Z,54.28
2022-12-31T21:27:08.073Z,49.33
2022-12-31T21:29:35.589Z,58.42
2022-12-31T21:32:03.539Z,53.42
2022-12-31T21:34:30.020Z,69.30
2022-12-31T21:36:56.569Z,76.68
2022-12-31T21:39:23.130Z,79.90
2022-12-31T21:41:49.640Z,73.70
2022-12-31T21:44:19.026Z,72.43
2022-12-31T21:47:15.892Z,78.28
2022-12-31T21:49:32.056Z,76.32
2022-12-31T21:51:58.779Z,67.15
2022-12-31T21:54:25.265Z,68.30
2022-12-31T21:56:51.831Z,75.07
2022-12-31T21:59:18.570Z,68.00
2022-12-31T22:01:45.978Z,58.80
2022-12-31T22:04:35.189Z,58.30
2022-12-31T22:07:03.204Z,63.95
2022-12-31T22:09:29.694Z,78.80
2022-12-31T22:11:56.966Z,95.35
2022-12-31T22:14:23.599Z,73.88
2022-12-31T22:16:50.090Z,77.20
2022-12-31T22:19:16.946Z,81.40
2022-12-31T22:21:43.381Z,78.97
2022-12-31T22:24:10.083Z,76.45
2022-12-31T22:26:39.258Z,93.57
2022-12-31T22:29:10.026Z,60.15
2022-12-31T22:31:36.687Z,80.57
2022-12-31T22:34:03.193Z,87.07
2022-12-31T22:36:29.641Z,81.47
2022-12-31T22:38:57.153Z,84.35
2022-12-31T22:41:26.641Z,77.35
2022-12-31T22:44:11.975Z,91.25
2022-12-31T22:46:38.555Z,97.85
2022-12-31T22:49:07.045Z,71.63
2022-12-31T22:51:55.663Z,89.18
2022-12-31T22:54:21.294Z,77.63
2022-12-31T22:56:48.824Z,126.43
2022-12-31T22:59:15.312Z,123.55
2022-12-31T23:01:44.698Z,125.68
2022-12-31T23:04:15.085Z,95.47
2022-12-31T23:06:41.631Z,90.80
2022-12-31T23:09:08.163Z,88.63
2022-12-31T23:11:35.825Z,78.60
2022-12-31T23:14:02.574Z,95.82
2022-12-31T23:16:31.931Z,143.98
2022-12-31T23:19:05.092Z,143.50
2022-12-31T23:21:31.996Z,205.13
2022-12-31T23:23:59.042Z,257.92
2022-12-31T23:26:31.742Z,258.30
2022-12-31T23:28:58.231Z,255.80
2022-12-31T23:31:24.816Z,247.43
2022-12-31T23:33:51.334Z,208.70
2022-12-31T23:36:17.967Z,203.25
2022-12-31T23:38:46.605Z,202.90
2022-12-31T23:41:13.818Z,197.25
2022-12-31T23:43:40.273Z,206.18
2022-12-31T23:46:06.830Z,230.70
2022-12-31T23:48:36.416Z,196.57
2022-12-31T23:51:03.468Z,184.38
2022-12-31T23:53:35.189Z,233.30
2022-12-31T23:56:12.047Z,214.48
2022-12-31T23:58:44.083Z,189.00
